Terminal Aerodrome Forecast
Issued by NWS

Home | Current Version | Previous Version | Text Only | Print | Product List | Glossary On
Versions: 1 2 3 4 5 6 7 8 9 10 11 12 13 14 15 16 17 18 19 20
000
FTUS42 KJAX 271354 AAA
TAFVQQ
TAF AMD
KVQQ 271354Z 2714/2812 08010KT P6SM VCSH BKN012 OVC025
     FM271500 10014KT 3SM SHRA VCTS BKN012 OVC030CB
     FM272300 14010KT P6SM VCSH OVC025=

USA.gov is the U.S. government's official web portal to all federal, state and local government web resources and services.